D/T METAR WX W/DIR W/SPE G/SPE TEMP DEWP
7/12/19 20:30 EIDL 072030Z 20021KT 4400 -RA OVC012 12/10 Q0987 -RA SSW (200°) 24.2mph 12°C 10°C
7/12/19 20:00 EIDL 072000Z 19021G32KT 8000 RA SCT018 OVC021 11/10 Q0987 RA S (190°) 24.2mph 36.8mph 11°C 10°C
7/12/19 19:30 EIDL 071930Z 20024G34KT 6000 RA SCT013 OVC024 11/10 Q0989 RA SSW (200°) 27.6mph 39.1mph 11°C 10°C
7/12/19 19:00 EIDL 071900Z 20024KT 5000 RA BKN012 OVC021 11/10 Q0989 RA SSW (200°) 27.6mph 11°C 10°C
7/12/19 18:30 EIDL 071830Z 19027KT 7000 RA FEW011 SCT016 OVC026 11/10 Q0989 RA S (190°) 31.1mph 11°C 10°C
7/12/19 18:00 EIDL 071800Z 19023KT 7000 RA BKN012 OVC016 11/10 Q0991 RA S (190°) 26.5mph 11°C 10°C
7/12/19 17:30 EIDL 071730Z 19022KT 9000 -RA OVC015 11/10 Q0992 -RA S (190°) 25.3mph 11°C 10°C
7/12/19 17:00 EIDL 071700Z 19021KT 7000 RA OVC016 11/10 Q0993 RA S (190°) 24.2mph 11°C 10°C
7/12/19 16:30 EIDL 071630Z 19021KT 4300 -RA FEW015 OVC020 11/10 Q0994 -RA S (190°) 24.2mph 11°C 10°C
7/12/19 16:00 EIDL 071600Z 19021KT 9999 -RA BKN024 OVC039 11/10 Q0995 -RA S (190°) 24.2mph 11°C 10°C
7/12/19 15:30 EIDL 071530Z 19016KT 9999 FEW021 BKN024 11/10 Q0996 S (190°) 18.4mph 11°C 10°C
7/12/19 15:00 EIDL 071500Z 20018KT 9999 FEW022 12/10 Q0997 SSW (200°) 20.7mph 12°C 10°C
7/12/19 14:30 EIDL 071430Z 21017KT 9999 SCT017 12/10 Q0998 SSW (210°) 19.6mph 12°C 10°C
7/12/19 14:00 EIDL 071400Z 21018KT 9999 -RA OVC014 12/10 Q0999 -RA SSW (210°) 20.7mph 12°C 10°C
7/12/19 13:30 EIDL 071330Z 21021KT 9999 -RA OVC011 12/11 Q1000 -RA SSW (210°) 24.2mph 12°C 11°C
7/12/19 13:00 EIDL 071300Z 21021G31KT 9999 -RA OVC010 12/11 Q1000 -RA SSW (210°) 24.2mph 35.7mph 12°C 11°C
7/12/19 12:30 EIDL 071230Z 21019KT 9999 -RA OVC009 12/10 Q1001 -RA SSW (210°) 21.9mph 12°C 10°C
7/12/19 12:00 EIDL 071200Z 21018KT 9999 -RA OVC009 12/10 Q1001 -RA SSW (210°) 20.7mph 12°C 10°C
7/12/19 11:00 EIDL 071100Z 20017KT 9999 OVC008 11/10 Q1002 SSW (200°) 19.6mph 11°C 10°C
7/12/19 10:30 EIDL 071030Z 20017KT 7000 -RA OVC009 10/10 Q1003 -RA SSW (200°) 19.6mph 10°C 10°C
7/12/19 10:00 EIDL 071000Z 19015KT 8000 -RA FEW009 BKN011 OVC015 10/09 Q1003 -RA S (190°) 17.3mph 10°C 9°C
7/12/19 09:30 EIDL 070930Z 19014KT 9999 BKN007 OVC012 10/09 Q1003 REDZ S (190°) 16.1mph 10°C 9°C
7/12/19 09:00 EIDL 070900Z 19011KT 9999 OVC008 09/09 Q1004 S (190°) 12.7mph 9°C 9°C
7/12/19 08:30 EIDL 070830Z 19013KT 9999 BKN009 OVC014 09/09 Q1004 S (190°) 15.0mph 9°C 9°C
7/12/19 08:00 EIDL 070800Z 21014KT 6000 -RA FEW005 SCT009 OVC013 10/09 Q1005 REDZ -RA SSW (210°) 16.1mph 10°C 9°C
6/12/19 20:00 EIDL 062000Z 28017KT 9999 SCT019 SCT032 10/07 Q1004 W (280°) 19.6mph 10°C 7°C
6/12/19 19:30 EIDL 061930Z 28017KT 9999 -RA BKN016 10/08 Q1004 -RA W (280°) 19.6mph 10°C 8°C
6/12/19 19:00 EIDL 061900Z 29017KT 9999 FEW022 SCT035 10/07 Q1004 WNW (290°) 19.6mph 10°C 7°C
6/12/19 18:30 EIDL 061830Z 28017KT 9999 FEW018 SCT021 BKN038 10/07 Q1003 W (280°) 19.6mph 10°C 7°C
6/12/19 17:30 EIDL 061730Z 28018KT 9999 FEW017 BKN021 BKN048 10/07 Q1002 W (280°) 20.7mph 10°C 7°C
6/12/19 17:00 EIDL 061700Z 28017KT 9999 FEW017 SCT022 BKN039 09/07 Q1002 W (280°) 19.6mph 9°C 7°C
6/12/19 16:30 EIDL 061630Z 28019KT 3800 -RA FEW014 SCT020 BKN041 09/08 Q1001 -RA W (280°) 21.9mph 9°C 8°C
6/12/19 16:00 EIDL 061600Z 29017KT 9999 FEW020 BKN024 10/07 Q1000 WNW (290°) 19.6mph 10°C 7°C
6/12/19 15:30 EIDL 061530Z 28019KT 9999 FEW013 SCT023 BKN048 09/07 Q1000 W (280°) 21.9mph 9°C 7°C
6/12/19 15:00 EIDL 061500Z 29018KT 9999 BKN021 BKN028 10/07 Q0999 WNW (290°) 20.7mph 10°C 7°C
6/12/19 14:30 EIDL 061430Z 28018KT 9999 BKN018 BKN025 10/07 Q0999 W (280°) 20.7mph 10°C 7°C
6/12/19 14:00 EIDL 061400Z 28017KT 9999 FEW017 BKN024 10/07 Q0999 W (280°) 19.6mph 10°C 7°C
6/12/19 13:30 EIDL 061330Z 29015KT 9999 SCT019 10/07 Q0998 WNW (290°) 17.3mph 10°C 7°C
6/12/19 13:00 EIDL 061300Z 29015KT 9999 BKN019 BKN043 10/07 Q0998 WNW (290°) 17.3mph 10°C 7°C
6/12/19 12:30 EIDL 061230Z 29017KT 9999 FEW017 10/07 Q0998 WNW (290°) 19.6mph 10°C 7°C
6/12/19 12:00 EIDL 061200Z 29017KT 9999 FEW017 BKN026 09/07 Q0997 WNW (290°) 19.6mph 9°C 7°C
6/12/19 11:30 EIDL 061130Z 28019KT 9000 -RA BKN015 BKN017 10/07 Q0997 -RA W (280°) 21.9mph 10°C 7°C
6/12/19 11:00 EIDL 061100Z 27014KT 7000 SCT013 BKN041 09/08 Q0997 W (270°) 16.1mph 9°C 8°C
6/12/19 10:30 EIDL 061030Z 27015KT 9999 FEW040 10/08 Q0996 W (270°) 17.3mph 10°C 8°C
6/12/19 10:00 EIDL 061000Z 27017KT 9000 -RA FEW015 10/08 Q0996 -RA W (270°) 19.6mph 10°C 8°C
6/12/19 09:30 EIDL 060930Z 27013KT 7000 -RA FEW036 10/08 Q0995 -RA W (270°) 15.0mph 10°C 8°C
6/12/19 09:00 EIDL 060900Z 27015KT 7000 -RA FEW016 09/08 Q0995 -RA W (270°) 17.3mph 9°C 8°C
6/12/19 08:30 EIDL 060830Z 28015KT 9999 -RA OVC011 09/08 Q0994 -RA W (280°) 17.3mph 9°C 8°C